Prince Of Seas — A8JI5 — position and weather

sailwx.info

Track history (hours):
 
Tides and Currents Weather Stations Pressure Air Temp Water Temp Dewpoint Dewpoint Depression Visibility Wind Speed Wind Dir Waves Ship Positions

Prince Of Seas

Last reported at 2017-Nov-24 04:00 UTC. Time now 2017-Nov-24 04:11 UTC.
Position N 52°57' E 004°20'.

Length 131 m; beam 19 m.

Type: Cargo ship. MMSI: 636091098.

Date/timePositionNaut miles runAvg speedWind from/ knotsBaromVisibWave heightAir tempDewpointWater temp
2017-Nov-24 04:00N 52°57' E 004°20'917.5
2017-Nov-24 03:30N 52°49' E 004°12'917.4
2017-Nov-24 03:00N 52°43' E 004°02'917.3
2017-Nov-24 02:29N 52°36' E 003°53'917.2
2017-Nov-24 01:57N 52°30' E 003°42'7816.6
2017-Nov-23 21:16N 51°31' E 002°18'417.0
2017-Nov-23 21:00N 51°28' E 002°14'917.1
2017-Nov-23 20:30N 51°20' E 002°09'816.9
2017-Nov-23 20:00N 51°13' E 002°01'917.7
2017-Nov-23 19:30N 51°08' E 001°49'917.7
2017-Nov-23 19:00N 51°02' E 001°39'918.2
2017-Nov-23 18:30N 50°55' E 001°29'5516.4
2017-Nov-23 15:08N 50°22' E 000°19'217.7
2017-Nov-23 15:00N 50°22' E 000°15'917.9
2017-Nov-23 14:30N 50°19' E 000°02'918.1
2017-Nov-23 14:00N 50°17' W 000°12'2118.5
2017-Nov-23 12:52N 50°11' W 000°43'919.5
2017-Nov-23 12:24N 50°09' W 000°57'820.1
2017-Nov-23 12:00N 50°07' W 001°09'1020.5
2017-Nov-23 11:31N 50°04' W 001°24'1020.8
2017-Nov-23 11:01N 50°02' W 001°40'1121.2
2017-Nov-23 10:30N 49°60' W 001°56'3020.4
2017-Nov-23 09:01N 49°52' W 002°42'219.5
2017-Nov-23 08:54N 49°51' W 002°45'1119.4
2017-Nov-23 08:19N 49°48' W 003°02'719.1
2017-Nov-23 07:56N 49°46' W 003°13'818.7
2017-Nov-23 07:29N 49°42' W 003°25'7918.4
2017-Nov-23 03:10N 48°59' W 005°07'318.1
2017-Nov-23 03:00N 48°57' W 005°11'917.8
2017-Nov-23 02:28N 48°52' W 005°23'917.6
2017-Nov-23 01:59N 48°48' W 005°33'1016.8
2017-Nov-23 01:25N 48°40' W 005°43'1316.2
2017-Nov-23 00:36N 48°28' W 005°52'  
2017-Nov-19 21:35N 36°14' W 000°35'217.7
2017-Nov-19 21:30N 36°13' W 000°34'  
2017-Nov-15 07:05N 36°02' W 005°13'118.9
2017-Nov-15 07:00N 36°01' W 005°14'918.4
2017-Nov-15 06:30N 35°58' W 005°25'1018.7
2017-Nov-15 05:57N 35°55' W 005°37'22015.8
2017-Nov-14 16:00N 37°31' W 009°45'1018.0
2017-Nov-14 15:26N 37°41' W 009°48'1018.1
2017-Nov-14 14:54N 37°50' W 009°51'918.1
2017-Nov-14 14:25N 37°58' W 009°54'1218.1
2017-Nov-14 13:45N 38°10' W 009°57'418.0
2017-Nov-14 13:30N 38°15' W 009°58'918.0
2017-Nov-14 13:00N 38°23' W 010°01'917.7
2017-Nov-14 12:30N 38°32' W 010°03'1017.7
2017-Nov-14 11:55N 38°42' W 010°06'717.7
2017-Nov-14 11:30N 38°49' W 010°06'917.7
2017-Nov-14 11:00N 38°58' W 010°06'917.7
2017-Nov-14 10:30N 39°07' W 010°07'  
Track history (hours):
 
Tides and Currents Weather Stations Pressure Air Temp Water Temp Dewpoint Dewpoint Depression Visibility Wind Speed Wind Dir Waves Ship Positions

Prince Of Seas

Last reported at 2017-Nov-24 04:00 UTC. Time now 2017-Nov-24 04:11 UTC.
Position N 52°57' E 004°20'.

Length 131 m; beam 19 m.

Type: Cargo ship. MMSI: 636091098.

Date/timePositionNaut miles runAvg speedWind from/ knotsBaromVisibWave heightAir tempDewpointWater temp
2017-Nov-24 04:00N 52°57' E 004°20'917.5
2017-Nov-24 03:30N 52°49' E 004°12'917.4
2017-Nov-24 03:00N 52°43' E 004°02'917.3
2017-Nov-24 02:29N 52°36' E 003°53'917.2
2017-Nov-24 01:57N 52°30' E 003°42'7816.6
2017-Nov-23 21:16N 51°31' E 002°18'417.0
2017-Nov-23 21:00N 51°28' E 002°14'917.1
2017-Nov-23 20:30N 51°20' E 002°09'816.9
2017-Nov-23 20:00N 51°13' E 002°01'917.7
2017-Nov-23 19:30N 51°08' E 001°49'917.7
2017-Nov-23 19:00N 51°02' E 001°39'918.2
2017-Nov-23 18:30N 50°55' E 001°29'5516.4
2017-Nov-23 15:08N 50°22' E 000°19'217.7
2017-Nov-23 15:00N 50°22' E 000°15'917.9
2017-Nov-23 14:30N 50°19' E 000°02'918.1
2017-Nov-23 14:00N 50°17' W 000°12'2118.5
2017-Nov-23 12:52N 50°11' W 000°43'919.5
2017-Nov-23 12:24N 50°09' W 000°57'820.1
2017-Nov-23 12:00N 50°07' W 001°09'1020.5
2017-Nov-23 11:31N 50°04' W 001°24'1020.8
2017-Nov-23 11:01N 50°02' W 001°40'1121.2
2017-Nov-23 10:30N 49°60' W 001°56'3020.4
2017-Nov-23 09:01N 49°52' W 002°42'219.5
2017-Nov-23 08:54N 49°51' W 002°45'1119.4
2017-Nov-23 08:19N 49°48' W 003°02'719.1
2017-Nov-23 07:56N 49°46' W 003°13'818.7
2017-Nov-23 07:29N 49°42' W 003°25'7918.4
2017-Nov-23 03:10N 48°59' W 005°07'318.1
2017-Nov-23 03:00N 48°57' W 005°11'917.8
2017-Nov-23 02:28N 48°52' W 005°23'917.6
2017-Nov-23 01:59N 48°48' W 005°33'1016.8
2017-Nov-23 01:25N 48°40' W 005°43'1316.2
2017-Nov-23 00:36N 48°28' W 005°52'  
2017-Nov-19 21:35N 36°14' W 000°35'217.7
2017-Nov-19 21:30N 36°13' W 000°34'  
2017-Nov-15 07:05N 36°02' W 005°13'118.9
2017-Nov-15 07:00N 36°01' W 005°14'918.4
2017-Nov-15 06:30N 35°58' W 005°25'1018.7
2017-Nov-15 05:57N 35°55' W 005°37'22015.8
2017-Nov-14 16:00N 37°31' W 009°45'1018.0
2017-Nov-14 15:26N 37°41' W 009°48'1018.1
2017-Nov-14 14:54N 37°50' W 009°51'918.1
2017-Nov-14 14:25N 37°58' W 009°54'1218.1
2017-Nov-14 13:45N 38°10' W 009°57'418.0
2017-Nov-14 13:30N 38°15' W 009°58'918.0
2017-Nov-14 13:00N 38°23' W 010°01'917.7
2017-Nov-14 12:30N 38°32' W 010°03'1017.7
2017-Nov-14 11:55N 38°42' W 010°06'717.7
2017-Nov-14 11:30N 38°49' W 010°06'917.7
2017-Nov-14 11:00N 38°58' W 010°06'917.7
2017-Nov-14 10:30N 39°07' W 010°07'  

Dump ship's entire track history